Terminal Aerodrome Forecast
Issued by NWS Charleston, WV

Current Version | Previous Version | Graphics & Text | Print | Product List | Glossary On
Versions: 1 2 3 4 5 6 7 8 9 10 11 12 13 14 15 16 17 18 19 20 21 22 23 24 25
504
FTUS41 KRLX 231120
TAFPKB
TAF
KPKB 231120Z 2312/2412 00000KT 1SM BR BKN001
     FM231330 00000KT 4SM BR SCT002
     FM231400 20003KT P6SM FEW060
     FM232300 00000KT P6SM SCT250
     FM240900 00000KT 5SM BR SCT150=

USA.gov is the U.S. government's official web portal to all federal, state and local government web resources and services.